SAME/MDZ METAR and TAF weather

Enter ICAO airport designator
Station Type Date Time Source
SAME METAR 2019/10/15 03:00 UTC NOAA

SAME 150300Z 14006KT CAVOK 06/01 Q1028


Station Type Date Time Source
SAME Decoded METAR 2019/10/15 03:00 UTC NOAA

Mendoza Aerodrome, Argentina (SAME) 32-50S 068-47W 704M
Oct 14, 2019 - 11:00 PM EDT / 2019.10.15 0300 UTC
Wind: from the SE (140 degrees) at 7 MPH (6 KT):0
Visibility: greater than 7 mile(s):0
Temperature: 42 F (6 C)
Dew Point: 33 F (1 C)
Relative Humidity: 70%
Pressure (altimeter): 30.36 in. Hg (1028 hPa)
ob: SAME 150300Z 14006KT CAVOK 06/01 Q1028
cycle: 3

Station Type Date Time Source
SAME TAF 2019/10/15 00:00 UTC NOAA

TAF SAME 142300Z 1500/1524 16010KT 9999 BKN020 BKN040 TX15/1520Z TN03/1510Z
BECMG 1505/1507 14005KT 9999 SCT040
BECMG 1516/1518 VRB03KT CAVOK

Example: see airport list